Time;durP1;ratioP1;P1;durP2;ratioP2;P2;SDS_P1;SDS_P2;PMS_P1;PMS_P2;Temp;Humidity;BMP_temperature;BMP_pressure;BME280_temperature;BME280_humidity;BME280_pressure;Samples;Min_cycle;Max_cycle;Signal;HPM_P1;HPM_P2
2023/04/04 00:02:08;;;;;;;;;;;6.30;46.70;;;4.13;51.08;102662.56;12246252;19;19923;-87
2023/04/04 00:06:10;;;;;;;;;;;6.00;46.60;;;4.29;50.95;102690.16;12254804;19;19914;-86
2023/04/04 00:10:11;;;;;;;;;;;5.90;46.50;;;4.32;51.15;102699.66;12254543;19;19922;-86
2023/04/04 00:14:13;;;;;;;;;;;6.10;46.60;;;4.31;50.97;102705.72;12259285;19;19922;-86
2023/04/04 00:18:15;;;;;;;;;;;5.80;46.60;;;3.96;51.00;102652.16;12253795;19;19927;-87
2023/04/04 00:22:17;;;;;;;;;;;5.80;46.60;;;4.24;51.00;102698.78;12258703;19;19918;-87
2023/04/04 00:26:20;;;;;;;;;;;5.80;46.60;;;4.21;50.85;102697.03;12257175;19;19930;-86
2023/04/04 00:30:22;;;;;;;;;;;5.90;46.70;;;4.23;51.04;102705.69;12254666;19;19922;-86
2023/04/04 00:34:24;;;;;;;;;;;5.80;46.60;;;4.14;51.08;102695.31;12257077;19;19922;-86
2023/04/04 00:38:28;;;;;;;;;;;5.70;46.60;;;4.02;50.96;102684.91;12261422;19;19923;-87
2023/04/04 00:42:32;;;;;;;;;;;5.70;46.60;;;4.07;51.11;102690.97;12266735;19;19919;-87
2023/04/04 00:46:34;;;;;;;;;;;5.60;46.50;;;4.03;51.08;102697.00;12264453;19;20341;-86
2023/04/04 00:50:36;;;;;;;;;;;5.70;46.60;;;3.85;51.09;102666.78;12260411;19;19919;-87
2023/04/04 00:54:37;;;;;;;;;;;5.60;46.60;;;3.99;50.96;102686.63;12266644;19;19974;-87
2023/04/04 00:58:40;;;;;;;;;;;5.60;46.70;;;4.03;51.09;102691.84;12259365;19;19931;-87
2023/04/04 01:02:42;;;;;;;;;;;5.50;46.60;;;3.97;51.00;102684.94;12263849;19;19926;-87
2023/04/04 01:06:44;;;;;;;;;;;5.50;46.70;;;3.96;51.09;102690.94;12262055;19;19911;-87
2023/04/04 01:10:47;;;;;;;;;;;5.50;46.70;;;3.77;51.20;102662.44;12256188;19;20277;-87
2023/04/04 01:14:49;;;;;;;;;;;5.50;46.70;;;3.68;50.92;102648.63;12260243;19;19940;-86
2023/04/04 01:18:52;;;;;;;;;;;5.50;46.60;;;3.89;51.16;102691.75;12256697;19;19922;-86
2023/04/04 01:22:55;;;;;;;;;;;5.50;46.70;;;3.61;51.06;102644.28;12260915;19;19932;-87
2023/04/04 01:26:59;;;;;;;;;;;5.40;46.60;;;3.86;50.99;102689.16;12257535;19;19911;-86
2023/04/04 01:31:05;;;;;;;;;;;5.60;46.70;;;3.70;51.12;102667.56;12256092;19;20287;-86
2023/04/04 01:35:21;;;;;;;;;;;5.40;46.80;;;3.61;51.24;102650.28;12258738;19;19923;-86
2023/04/04 01:39:31;;;;;;;;;;;5.30;46.60;;;3.77;51.13;102682.25;12250977;19;19914;-87
2023/04/04 01:43:33;;;;;;;;;;;5.40;46.70;;;3.61;51.11;102652.03;12256219;19;19919;-87
2023/04/04 01:47:40;;;;;;;;;;;5.30;46.70;;;3.52;51.06;102650.25;12254928;19;19923;-86
2023/04/04 01:51:45;;;;;;;;;;;5.30;46.70;;;3.53;51.24;102650.25;12255597;19;19915;-87
2023/04/04 01:55:46;;;;;;;;;;;5.50;46.80;;;3.55;51.25;102653.72;12251948;19;19918;-86
2023/04/04 01:59:50;;;;;;;;;;;5.20;46.70;;;3.28;51.31;102604.50;12251404;19;19918;-86
2023/04/04 02:03:52;;;;;;;;;;;5.20;46.70;;;3.59;51.09;102656.31;12253857;19;20279;-86
2023/04/04 02:07:54;;;;;;;;;;;5.20;46.70;;;3.43;51.22;102633.00;12251805;19;19941;-86
2023/04/04 02:12:05;;;;;;;;;;;5.20;46.70;;;3.59;51.23;102662.34;12252870;19;19919;-86
2023/04/04 02:16:07;;;;;;;;;;;5.20;46.70;;;3.40;51.29;102635.53;12256327;19;19918;-87
2023/04/04 02:20:09;;;;;;;;;;;5.20;46.80;;;3.53;51.25;102657.16;12252391;19;19948;-87
2023/04/04 02:24:10;;;;;;;;;;;5.10;46.70;;;3.31;51.13;102625.19;12251945;19;20447;-87
2023/04/04 02:28:12;;;;;;;;;;;5.10;46.70;;;3.41;51.14;102639.03;12246893;19;19927;-87
2023/04/04 02:32:13;;;;;;;;;;;5.10;46.70;;;3.40;51.31;102635.53;12251318;19;20651;-86
2023/04/04 02:36:16;;;;;;;;;;;5.00;46.70;;;3.28;51.20;102617.41;12251953;19;19915;-86
2023/04/04 02:40:21;;;;;;;;;;;5.00;46.70;;;3.39;51.49;102630.38;12247747;19;20317;-86
2023/04/04 02:44:22;;;;;;;;;;;5.00;46.70;;;3.04;51.10;102582.00;12248271;19;19938;-86
2023/04/04 02:48:26;;;;;;;;;;;5.00;46.70;;;3.32;51.24;102632.94;12246773;19;20332;-86
2023/04/04 02:52:33;;;;;;;;;;;5.00;46.70;;;3.35;51.37;102633.78;12250725;19;19914;-86
2023/04/04 02:56:42;;;;;;;;;;;4.90;46.70;;;3.21;51.26;102620.81;12249341;19;19911;-86
2023/04/04 03:00:46;;;;;;;;;;;4.90;47.10;;;2.91;51.19;102563.00;12250192;19;20001;-86
2023/04/04 03:04:47;;;;;;;;;;;4.90;46.70;;;3.06;51.23;102596.66;12249692;19;20537;-86
2023/04/04 03:08:49;;;;;;;;;;;5.30;46.90;;;3.19;51.50;102623.41;12244123;19;20326;-86
2023/04/04 03:12:52;;;;;;;;;;;4.80;46.70;;;3.19;51.24;102627.72;12248986;19;19950;-86
2023/04/04 03:16:56;;;;;;;;;;;4.90;47.10;;;2.62;51.39;102544.75;12248497;19;19986;-86
2023/04/04 03:20:58;;;;;;;;;;;4.80;46.70;;;2.96;51.30;102594.00;12255197;19;19923;-86
2023/04/04 03:25:00;;;;;;;;;;;4.70;46.70;;;2.88;51.45;102589.63;12256369;19;19914;-86
2023/04/04 03:29:03;;;;;;;;;;;4.90;46.80;;;2.92;51.44;102593.13;12253357;19;19915;-86
2023/04/04 03:33:08;;;;;;;;;;;4.70;46.70;;;2.90;51.31;102599.97;12257730;19;19938;-86
2023/04/04 03:37:11;;;;;;;;;;;4.60;46.60;;;2.86;51.33;102588.78;12253205;19;20377;-86
2023/04/04 03:41:14;;;;;;;;;;;4.60;46.70;;;2.86;51.25;102599.09;12264634;19;20263;-86
2023/04/04 03:45:16;;;;;;;;;;;4.50;46.70;;;2.61;51.51;102550.75;12267213;19;19946;-86
2023/04/04 03:49:18;;;;;;;;;;;4.60;46.80;;;2.82;51.33;102591.31;12261034;19;19915;-86
2023/04/04 03:53:20;;;;;;;;;;;4.50;46.80;;;2.82;51.23;102588.75;12265378;19;20017;-86
2023/04/04 03:57:21;;;;;;;;;;;4.50;46.80;;;2.63;51.35;102549.06;12259095;19;19918;-86
2023/04/04 04:01:23;;;;;;;;;;;4.50;46.80;;;2.78;51.37;102576.66;12262726;19;19915;-86
2023/04/04 04:05:25;;;;;;;;;;;4.70;46.90;;;2.70;51.28;102565.44;12261188;19;19918;-86
2023/04/04 04:09:27;;;;;;;;;;;4.70;46.90;;;2.63;51.20;102567.97;12256596;19;19915;-86
2023/04/04 04:13:29;;;;;;;;;;;4.60;46.80;;;2.62;51.18;102571.41;12261883;19;19927;-86
2023/04/04 04:17:30;;;;;;;;;;;4.40;46.80;;;2.70;51.45;102586.94;12255613;19;20652;-86
2023/04/04 04:21:32;;;;;;;;;;;4.30;46.70;;;2.59;51.28;102573.97;12258799;19;20399;-86
2023/04/04 04:25:34;;;;;;;;;;;4.30;46.70;;;2.30;51.30;102529.91;12260797;19;19970;-86
2023/04/04 04:29:45;;;;;;;;;;;4.60;46.90;;;2.47;51.44;102558.38;12255158;19;19918;-86
2023/04/04 04:33:48;;;;;;;;;;;4.30;46.80;;;2.40;51.46;102548.88;12251312;19;20372;-86
2023/04/04 04:37:51;;;;;;;;;;;4.20;46.70;;;2.44;51.63;102569.53;12252131;19;19926;-86
2023/04/04 04:41:55;;;;;;;;;;;4.20;46.70;;;2.40;51.63;102557.50;12259079;19;20338;-86
2023/04/04 04:45:59;;;;;;;;;;;4.20;46.80;;;2.27;51.50;102547.03;12258536;19;20343;-86
2023/04/04 04:50:02;;;;;;;;;;;4.20;46.80;;;2.54;51.66;102597.97;12252616;19;19914;-86
2023/04/04 04:54:10;;;;;;;;;;;4.20;46.90;;;2.53;51.54;102588.50;12255317;19;19919;-86
2023/04/04 04:58:15;;;;;;;;;;;4.20;46.90;;;2.10;51.43;102521.97;12253310;19;19990;-86
2023/04/04 05:02:21;;;;;;;;;;;4.20;46.90;;;2.52;51.48;102597.13;12253860;19;19931;-86
2023/04/04 05:06:22;;;;;;;;;;;4.20;46.90;;;2.49;51.36;102597.09;12257823;19;20374;-86
2023/04/04 05:10:25;;;;;;;;;;;4.10;46.80;;;2.18;51.48;102546.09;12252884;19;19910;-86
2023/04/04 05:14:28;;;;;;;;;;;4.20;46.90;;;2.39;51.54;102591.84;12253478;19;19958;-85
2023/04/04 05:18:32;;;;;;;;;;;4.10;46.90;;;2.26;51.54;102571.09;12252921;19;19925;-86
2023/04/04 05:22:34;;;;;;;;;;;4.20;46.90;;;2.47;51.59;102611.69;12254593;19;19911;-88
2023/04/04 05:26:35;;;;;;;;;;;4.10;46.90;;;2.46;51.62;102615.09;12255020;19;19926;-86
2023/04/04 05:30:38;;;;;;;;;;;4.50;47.10;;;2.44;51.68;102615.09;12252233;19;20369;-86
2023/04/04 05:34:51;;;;;;;;;;;4.10;46.90;;;2.28;51.48;102595.19;12253319;19;20388;-87
2023/04/04 05:38:55;;;;;;;;;;;4.30;47.00;;;2.27;51.67;102596.91;12252400;19;19922;-85
2023/04/04 05:43:03;;;;;;;;;;;4.10;47.00;;;2.39;51.73;102620.19;12252728;19;19923;-86
2023/04/04 05:47:09;;;;;;;;;;;4.20;47.00;;;2.38;51.70;102610.75;12249656;19;19923;-86
2023/04/04 05:51:14;;;;;;;;;;;4.10;47.00;;;2.03;51.64;102551.13;12244184;19;19923;-87
2023/04/04 05:55:23;;;;;;;;;;;4.40;47.20;;;2.47;51.69;102616.84;12251321;19;19926;-87
2023/04/04 05:59:24;;;;;;;;;;;4.20;47.10;;;2.52;51.75;102622.91;12248149;19;19919;-87
2023/04/04 06:03:34;;;;;;;;;;;4.20;47.10;;;2.49;51.78;102621.16;12249499;19;20636;-87
2023/04/04 06:07:36;;;;;;;;;;;4.30;47.20;;;2.55;51.88;102622.91;12248273;19;19922;-87
2023/04/04 06:11:38;;;;;;;;;;;4.20;47.20;;;2.33;51.80;102571.16;12249752;19;19910;-87
2023/04/04 06:15:43;;;;;;;;;;;4.30;47.30;;;2.53;51.92;102597.09;12249268;19;19911;-87
2023/04/04 06:19:44;;;;;;;;;;;4.30;47.40;;;2.59;51.90;102609.19;12245783;19;20271;-86
2023/04/04 06:23:46;;;;;;;;;;;4.40;47.40;;;2.79;51.89;102627.41;12250590;19;19915;-87
2023/04/04 06:27:47;;;;;;;;;;;4.50;47.50;;;2.79;51.93;102624.84;12247231;19;20417;-88
2023/04/04 06:31:49;;;;;;;;;;;4.50;47.50;;;2.78;51.93;102613.66;12255781;19;19911;-87
2023/04/04 06:35:56;;;;;;;;;;;4.70;47.60;;;2.66;51.88;102580.88;12253503;19;19937;-87
2023/04/04 06:39:58;;;;;;;;;;;4.70;47.60;;;2.93;51.85;102615.47;12244480;19;19952;-86
2023/04/04 06:44:02;;;;;;;;;;;4.90;47.70;;;2.91;51.85;102609.44;12247593;19;19911;-86
2023/04/04 06:48:03;;;;;;;;;;;5.10;47.70;;;2.97;52.03;102609.50;12244898;19;19924;-86
2023/04/04 06:52:08;;;;;;;;;;;4.90;47.60;;;3.06;52.17;102614.72;12248768;19;19962;-86
2023/04/04 06:56:09;;;;;;;;;;;4.90;47.60;;;3.02;51.78;102600.03;12249886;19;19914;-86
2023/04/04 07:00:12;;;;;;;;;;;5.00;47.60;;;3.26;51.99;102627.72;12249461;19;19918;-87
2023/04/04 07:04:13;;;;;;;;;;;5.00;47.90;;;3.32;51.90;102629.47;12248005;19;19907;-87
2023/04/04 07:08:15;;;;;;;;;;;5.10;47.60;;;3.30;52.23;102619.16;12249495;19;19978;-87
2023/04/04 07:12:16;;;;;;;;;;;5.20;47.80;;;3.20;52.12;102588.13;12251067;19;19930;-89
2023/04/04 07:16:18;;;;;;;;;;;5.30;47.60;;;3.42;52.12;102614.91;12245150;19;19930;-86
2023/04/04 07:20:20;;;;;;;;;;;5.40;47.60;;;3.40;52.25;102593.38;12245680;19;19919;-86
2023/04/04 07:24:21;;;;;;;;;;;5.30;47.60;;;3.46;52.27;102591.69;12242865;19;20298;-86
2023/04/04 07:28:22;;;;;;;;;;;5.40;47.70;;;3.61;52.09;102600.34;12246247;19;19922;-87
2023/04/04 07:32:24;;;;;;;;;;;5.50;47.70;;;3.70;52.13;102588.34;12248985;19;19926;-86
2023/04/04 07:36:25;;;;;;;;;;;5.50;47.70;;;3.84;52.50;102590.97;12248235;19;19958;-86
2023/04/04 07:40:27;;;;;;;;;;;5.70;47.60;;;3.88;52.19;102568.56;12247451;19;19927;-87
2023/04/04 07:44:28;;;;;;;;;;;5.70;47.80;;;4.12;52.42;102586.72;12245143;19;19956;-87
2023/04/04 07:48:29;;;;;;;;;;;6.20;47.70;;;4.35;52.42;102596.25;12244818;19;19911;-87
2023/04/04 07:52:31;;;;;;;;;;;6.00;47.60;;;4.51;52.42;102603.16;12245367;19;19950;-87
2023/04/04 07:56:32;;;;;;;;;;;6.20;47.60;;;4.57;52.59;102576.41;12246176;19;19927;-87
2023/04/04 08:00:34;;;;;;;;;;;6.40;47.40;;;4.81;52.60;102580.72;12247824;19;19950;-87
2023/04/04 08:04:36;;;;;;;;;;;6.50;47.30;;;4.92;52.40;102578.09;12247131;19;19929;-87
2023/04/04 08:08:37;;;;;;;;;;;6.80;46.60;;;5.15;52.34;102597.03;12242317;19;19919;-87
2023/04/04 08:12:39;;;;;;;;;;;6.90;47.20;;;5.22;52.49;102587.53;12243923;19;19911;-86
2023/04/04 08:16:40;;;;;;;;;;;7.00;46.90;;;5.30;52.37;102555.56;12244820;19;19923;-86
2023/04/04 08:20:42;;;;;;;;;;;7.20;47.20;;;5.41;52.39;102546.88;12242538;19;19919;-86
2023/04/04 08:24:45;;;;;;;;;;;7.40;46.50;;;5.46;52.54;102517.50;12244986;19;19922;-87
2023/04/04 08:28:47;;;;;;;;;;;7.50;46.60;;;5.85;52.32;102548.38;12251075;19;19938;-88
2023/04/04 08:32:48;;;;;;;;;;;7.70;46.10;;;5.94;52.29;102541.44;12258049;19;19998;-88
2023/04/04 08:36:50;;;;;;;;;;;7.80;46.70;;;6.12;52.39;102536.97;12255673;19;19960;-87
2023/04/04 08:40:52;;;;;;;;;;;8.00;46.90;;;6.08;52.52;102502.44;12256473;19;19911;-88
2023/04/04 08:44:56;;;;;;;;;;;8.10;45.90;;;6.52;52.55;102553.09;12254889;19;19923;-87
2023/04/04 08:48:59;;;;;;;;;;;8.40;46.40;;;6.66;52.37;102552.97;12249653;19;19915;-87
2023/04/04 08:53:03;;;;;;;;;;;8.50;46.20;;;6.76;52.44;102556.34;12255000;19;19946;-87
2023/04/04 08:57:05;;;;;;;;;;;8.90;45.90;;;6.76;52.22;102556.34;12254537;19;19914;-87
2023/04/04 09:01:07;;;;;;;;;;;8.70;45.00;;;6.60;52.24;102527.06;12254117;19;19945;-87
2023/04/04 09:05:09;;;;;;;;;;;8.70;45.60;;;6.83;51.90;102565.78;12258782;19;19931;-88
2023/04/04 09:09:11;;;;;;;;;;;8.70;45.60;;;6.70;52.07;102540.81;12253917;19;19975;-87
2023/04/04 09:13:12;;;;;;;;;;;9.00;45.80;;;6.69;51.92;102542.53;12254691;19;20260;-86
2023/04/04 09:17:13;;;;;;;;;;;8.70;45.70;;;6.51;51.98;102515.06;12261695;19;19921;-89
2023/04/04 09:21:15;;;;;;;;;;;8.60;45.70;;;6.65;51.93;102526.16;12257139;19;19986;-88
2023/04/04 09:25:17;;;;;;;;;;;8.60;45.20;;;6.67;52.20;102517.47;12250736;19;19935;-87
2023/04/04 09:29:20;;;;;;;;;;;8.60;45.40;;;6.98;52.30;102550.03;12249112;19;19999;-86
2023/04/04 09:33:25;;;;;;;;;;;8.70;46.10;;;7.06;52.06;102530.03;12255958;19;19915;-86
2023/04/04 09:37:26;;;;;;;;;;;8.80;45.60;;;7.01;52.10;102485.06;12252037;19;19919;-86
2023/04/04 09:41:28;;;;;;;;;;;8.90;45.90;;;7.45;52.00;102524.38;12257957;19;19919;-87
2023/04/04 09:45:30;;;;;;;;;;;9.10;44.70;;;7.50;52.01;102517.38;12254917;19;19923;-85
2023/04/04 09:49:31;;;;;;;;;;;9.30;44.20;;;7.70;51.60;102537.91;12252984;19;19921;-87
2023/04/04 09:53:35;;;;;;;;;;;9.40;45.30;;;7.66;51.59;102518.03;12257644;19;19939;-87
2023/04/04 09:57:36;;;;;;;;;;;9.50;44.60;;;7.64;51.58;102519.78;12251520;19;19939;-87
2023/04/04 10:01:38;;;;;;;;;;;9.50;44.60;;;7.67;51.74;102525.81;12252616;19;19911;-87
2023/04/04 10:05:40;;;;;;;;;;;9.50;44.10;;;7.68;51.51;102519.72;12250872;19;20048;-87
2023/04/04 10:09:42;;;;;;;;;;;9.50;43.60;;;7.70;51.53;102523.16;12250372;19;19922;-87
2023/04/04 10:13:45;;;;;;;;;;;9.50;42.30;;;7.63;51.31;102513.72;12254605;19;19926;-87
2023/04/04 10:17:48;;;;;;;;;;;9.50;44.30;;;7.66;51.36;102523.22;12250565;19;19930;-86
2023/04/04 10:21:50;;;;;;;;;;;9.50;42.90;;;7.65;51.28;102513.72;12250617;19;20359;-87
2023/04/04 10:25:56;;;;;;;;;;;9.40;43.50;;;7.62;51.31;102487.75;12251907;19;19938;-88
2023/04/04 10:29:58;;;;;;;;;;;9.50;44.40;;;7.35;51.29;102430.09;12251133;19;19924;-86
2023/04/04 10:34:27;;;;;;;;;;;9.50;44.30;;;7.98;51.53;102514.94;12251113;19;20370;-86
2023/04/04 10:38:33;;;;;;;;;;;9.60;44.10;;;7.81;51.20;102481.41;12250843;19;19919;-86
2023/04/04 10:42:40;;;;;;;;;;;9.70;43.60;;;7.71;51.31;102461.63;12253609;19;19942;-86
2023/04/04 10:46:45;;;;;;;;;;;9.70;42.40;;;7.97;51.17;102498.47;12249750;19;20341;-86
2023/04/04 10:50:46;;;;;;;;;;;9.80;43.70;;;7.62;51.21;102439.22;12240058;19;19918;-86
2023/04/04 10:55:01;;;;;;;;;;;9.70;43.80;;;8.05;51.14;102497.50;12248070;19;19918;-86
2023/04/04 10:59:12;;;;;;;;;;;9.70;43.90;;;8.15;51.41;102493.84;12245684;19;19918;-86
2023/04/04 11:03:13;;;;;;;;;;;9.80;44.00;;;8.19;51.29;102485.13;12249891;19;19919;-85
2023/04/04 11:07:16;;;;;;;;;;;10.00;44.80;;;8.21;51.12;102483.38;12244784;19;20238;-86
2023/04/04 11:11:17;;;;;;;;;;;9.90;43.90;;;8.31;51.04;102476.25;12246406;19;19919;-86
2023/04/04 11:15:23;;;;;;;;;;;10.00;41.60;;;8.37;51.03;102476.13;12247787;19;19943;-86
2023/04/04 11:19:25;;;;;;;;;;;10.00;44.00;;;8.46;51.07;102467.34;12246341;19;19997;-84
2023/04/04 11:23:27;;;;;;;;;;;10.10;44.70;;;8.48;51.04;102437.78;12247809;19;19923;-85
2023/04/04 11:27:29;;;;;;;;;;;10.20;43.60;;;8.66;51.04;102460.00;12243789;19;19923;-86
2023/04/04 11:31:34;;;;;;;;;;;10.30;43.20;;;8.62;50.97;102440.13;12241562;19;19923;-86
2023/04/04 11:35:39;;;;;;;;;;;10.40;43.00;;;8.74;50.73;102449.44;12244277;19;19923;-89
2023/04/04 11:39:55;;;;;;;;;;;10.50;43.30;;;8.74;50.93;102439.88;12246334;19;19942;-91
2023/04/04 11:44:09;;;;;;;;;;;10.50;42.70;;;8.74;50.45;102436.41;12247333;19;19923;-86
2023/04/04 11:48:11;;;;;;;;;;;10.50;43.60;;;8.71;50.68;102419.09;12239836;19;20306;-87
2023/04/04 11:52:17;;;;;;;;;;;10.50;43.60;;;8.55;50.72;102383.84;12245735;19;20329;-86
2023/04/04 11:56:19;;;;;;;;;;;10.50;42.70;;;8.68;50.60;102400.94;12244606;19;19926;-87
2023/04/04 12:00:31;;;;;;;;;;;10.50;43.70;;;8.84;50.73;102425.78;12247884;19;19919;-87
2023/04/04 12:04:33;;;;;;;;;;;10.50;43.80;;;8.88;50.83;102418.75;12258123;19;19929;-86
2023/04/04 12:08:34;;;;;;;;;;;10.50;44.40;;;8.71;50.68;102376.59;12253232;19;19926;-86
2023/04/04 12:12:38;;;;;;;;;;;10.60;43.50;;;8.92;50.67;102385.69;12256250;19;19918;-87
2023/04/04 12:16:39;;;;;;;;;;;10.60;43.60;;;9.11;50.76;102397.44;12253751;19;19924;-85
2023/04/04 12:20:46;;;;;;;;;;;10.70;44.40;;;9.19;50.55;102402.47;12257103;19;19923;-86
2023/04/04 12:24:48;;;;;;;;;;;10.80;43.80;;;9.00;50.78;102362.94;12255375;19;19930;-85
2023/04/04 12:28:52;;;;;;;;;;;10.80;44.40;;;9.26;50.51;102389.28;12254295;19;19911;-85
2023/04/04 12:32:53;;;;;;;;;;;10.90;43.70;;;9.21;50.56;102359.00;12254964;19;19919;-85
2023/04/04 12:36:55;;;;;;;;;;;11.00;41.40;;;9.35;50.69;102376.91;12256045;19;20255;-86
2023/04/04 12:40:57;;;;;;;;;;;11.00;43.20;;;9.40;50.61;102372.44;12254881;19;19974;-86
2023/04/04 12:45:00;;;;;;;;;;;11.10;43.70;;;9.45;50.46;102370.56;12256864;19;19919;-86
2023/04/04 12:49:03;;;;;;;;;;;11.10;42.30;;;9.49;50.39;102365.25;12253973;19;20019;-86
2023/04/04 12:53:06;;;;;;;;;;;11.10;43.20;;;9.53;50.37;102348.66;12255997;19;20684;-86
2023/04/04 12:57:07;;;;;;;;;;;11.20;43.50;;;9.60;50.50;102353.69;12254084;19;19933;-87
2023/04/04 13:01:09;;;;;;;;;;;11.20;43.60;;;9.62;50.56;102337.13;12254463;19;19926;-87
2023/04/04 13:05:12;;;;;;;;;;;11.50;44.10;;;9.73;50.42;102361.19;12252677;19;19915;-86
2023/04/04 13:09:18;;;;;;;;;;;11.50;42.40;;;9.74;50.27;102355.06;12250489;19;19922;-86
2023/04/04 13:13:34;;;;;;;;;;;11.30;43.10;;;9.60;50.15;102325.00;12253742;19;19917;-86
2023/04/04 13:17:40;;;;;;;;;;;11.40;43.60;;;9.73;50.25;102340.31;12252443;19;20189;-86
2023/04/04 13:21:43;;;;;;;;;;;11.30;43.10;;;9.74;50.29;102336.78;12254305;19;19914;-86
2023/04/04 13:25:44;;;;;;;;;;;11.50;41.80;;;9.64;50.23;102311.88;12252821;19;20330;-87
2023/04/04 13:29:46;;;;;;;;;;;11.40;42.70;;;9.73;50.09;102323.81;12250877;19;19911;-86
2023/04/04 13:33:47;;;;;;;;;;;11.30;42.40;;;9.64;50.00;102304.03;12253255;19;20389;-86
2023/04/04 13:37:48;;;;;;;;;;;11.50;41.50;;;9.65;49.91;102312.72;12252990;19;19918;-85
2023/04/04 13:41:50;;;;;;;;;;;11.30;43.50;;;9.60;49.87;102305.00;12251921;19;20329;-86
2023/04/04 13:45:54;;;;;;;;;;;11.30;43.30;;;9.62;49.77;102311.03;12251490;19;19911;-86
2023/04/04 13:49:56;;;;;;;;;;;11.30;43.60;;;9.62;49.75;102308.44;12250242;19;19937;-85
2023/04/04 13:53:57;;;;;;;;;;;11.30;42.70;;;9.41;49.76;102255.06;12251458;19;19914;-84
2023/04/04 13:57:59;;;;;;;;;;;11.30;42.40;;;9.67;49.74;102290.91;12250028;19;19915;-85
2023/04/04 14:02:00;;;;;;;;;;;11.30;42.10;;;9.58;50.02;102270.28;12249321;19;19922;-85
2023/04/04 14:06:02;;;;;;;;;;;11.30;42.20;;;9.77;49.95;102280.22;12252697;19;19923;-85
2023/04/04 14:10:04;;;;;;;;;;;11.30;42.60;;;9.60;49.72;102246.78;12248511;19;19911;-86
2023/04/04 14:14:06;;;;;;;;;;;11.40;43.00;;;9.84;49.84;102266.13;12250572;19;19943;-86
2023/04/04 14:18:07;;;;;;;;;;;11.40;40.40;;;9.97;49.87;102267.50;12247025;19;19942;-87
2023/04/04 14:22:09;;;;;;;;;;;11.50;41.10;;;9.78;49.63;102227.16;12251777;19;19919;-86
2023/04/04 14:26:10;;;;;;;;;;;11.50;42.00;;;10.06;49.73;102277.66;12251083;19;19982;-86
2023/04/04 14:30:12;;;;;;;;;;;11.60;40.40;;;9.96;49.35;102256.22;12250263;19;19918;-86
2023/04/04 14:34:13;;;;;;;;;;;11.60;40.80;;;9.92;49.60;102243.28;12248225;19;20359;-87
2023/04/04 14:38:15;;;;;;;;;;;11.60;40.70;;;10.07;49.63;102258.53;12245737;19;20354;-85
2023/04/04 14:42:20;;;;;;;;;;;11.80;42.70;;;10.02;49.48;102249.97;12243742;19;20356;-86
2023/04/04 14:46:22;;;;;;;;;;;11.60;42.10;;;9.95;49.35;102237.97;12248080;19;19934;-85
2023/04/04 14:50:23;;;;;;;;;;;11.60;42.80;;;9.94;49.35;102231.06;12246660;19;19907;-86
2023/04/04 14:54:25;;;;;;;;;;;11.60;42.60;;;10.07;49.41;102244.59;12248207;19;19918;-85
2023/04/04 14:58:26;;;;;;;;;;;11.60;42.80;;;9.98;49.46;102224.84;12245716;19;19917;-86
2023/04/04 15:02:28;;;;;;;;;;;11.60;43.20;;;10.11;49.25;102235.78;12246772;19;20267;-86
2023/04/04 15:06:36;;;;;;;;;;;11.60;43.30;;;10.06;49.33;102215.03;12249345;19;20360;-86
2023/04/04 15:10:37;;;;;;;;;;;11.70;42.60;;;10.21;49.33;102232.03;12245987;19;20004;-86
2023/04/04 15:14:39;;;;;;;;;;;11.70;42.10;;;10.20;49.48;102225.06;12248752;19;19923;-86
2023/04/04 15:18:40;;;;;;;;;;;11.80;40.10;;;10.15;49.38;102217.41;12246615;19;20265;-86
2023/04/04 15:22:42;;;;;;;;;;;11.80;42.20;;;10.24;49.24;102236.28;12248562;19;19922;-86
2023/04/04 15:26:44;;;;;;;;;;;11.80;41.70;;;10.15;49.33;102220.00;12249747;19;19932;-87
2023/04/04 15:30:46;;;;;;;;;;;11.80;42.70;;;10.16;49.20;102224.31;12243178;19;20254;-87
2023/04/04 15:34:47;;;;;;;;;;;11.70;42.60;;;10.19;49.29;102232.06;12254639;19;19915;-86
2023/04/04 15:38:49;;;;;;;;;;;11.70;42.30;;;9.87;49.14;102174.72;12272137;19;19918;-86
2023/04/04 15:42:50;;;;;;;;;;;11.70;42.80;;;10.06;49.08;102209.81;12271055;19;19942;-87
2023/04/04 15:46:52;;;;;;;;;;;11.70;43.00;;;10.17;49.17;102228.63;12269515;19;19927;-86
2023/04/04 15:51:01;;;;;;;;;;;11.70;42.30;;;10.14;48.90;102228.72;12265443;19;20234;-87
2023/04/04 15:55:03;;;;;;;;;;;11.60;40.50;;;10.11;49.18;102222.75;12272014;19;19903;-87
2023/04/04 15:59:05;;;;;;;;;;;11.60;42.20;;;10.12;48.99;102227.91;12265706;19;19915;-89
2023/04/04 16:03:07;;;;;;;;;;;11.60;42.40;;;10.09;48.91;102217.56;12270737;19;19937;-89
2023/04/04 16:07:08;;;;;;;;;;;11.60;42.30;;;10.06;48.98;102222.00;12268902;19;19919;-90
2023/04/04 16:11:10;;;;;;;;;;;11.60;42.10;;;9.88;48.88;102192.06;12266820;19;19921;-89
2023/04/04 16:15:12;;;;;;;;;;;11.50;42.00;;;9.72;48.80;102168.16;12268293;19;19921;-88
2023/04/04 16:19:15;;;;;;;;;;;11.50;41.10;;;9.66;48.90;102153.56;12265738;19;20266;-87
2023/04/04 16:23:17;;;;;;;;;;;11.50;42.40;;;9.97;48.86;102199.66;12269639;19;19923;-86
2023/04/04 16:27:19;;;;;;;;;;;11.50;41.80;;;9.95;48.98;102202.28;12266181;19;20344;-88
2023/04/04 16:31:20;;;;;;;;;;;11.50;42.20;;;10.00;48.77;102202.16;12266584;19;19903;-88
2023/04/04 16:35:22;;;;;;;;;;;11.50;42.40;;;10.03;48.88;102209.91;12268449;19;19962;-88
2023/04/04 16:39:24;;;;;;;;;;;11.50;43.10;;;9.73;48.69;102154.25;12261652;19;19929;-88
2023/04/04 16:43:26;;;;;;;;;;;11.50;41.40;;;9.94;48.76;102184.94;12269605;19;19910;-88
2023/04/04 16:47:27;;;;;;;;;;;11.40;42.30;;;9.99;48.83;102187.44;12259317;19;19962;-88
2023/04/04 16:51:30;;;;;;;;;;;11.40;42.60;;;9.84;48.69;102161.78;12253609;19;19946;-88
2023/04/04 16:55:32;;;;;;;;;;;11.50;42.70;;;9.89;48.67;102170.31;12258185;19;19915;-88
2023/04/04 16:59:36;;;;;;;;;;;11.50;42.80;;;9.92;48.73;102173.69;12246936;19;19930;-88
2023/04/04 17:03:38;;;;;;;;;;;11.50;43.20;;;9.73;48.77;102149.88;12251896;19;19922;-88
2023/04/04 17:07:40;;;;;;;;;;;11.40;42.70;;;9.80;48.58;102160.13;12251796;19;19923;-88
2023/04/04 17:11:43;;;;;;;;;;;11.40;42.60;;;9.92;48.62;102191.09;12252223;19;19915;-88
2023/04/04 17:15:46;;;;;;;;;;;11.40;42.80;;;9.80;48.52;102157.53;12254673;19;19923;-88
2023/04/04 17:19:47;;;;;;;;;;;11.40;42.90;;;9.81;48.74;102164.47;12251961;19;19915;-87
2023/04/04 17:23:49;;;;;;;;;;;11.40;43.00;;;9.66;48.58;102153.56;12253983;19;19934;-87
2023/04/04 17:27:50;;;;;;;;;;;11.30;43.00;;;9.71;48.71;102167.31;12253255;19;19942;-88
2023/04/04 17:31:55;;;;;;;;;;;11.30;43.10;;;9.64;48.53;102149.28;12249855;19;19968;-88
2023/04/04 17:35:57;;;;;;;;;;;11.30;43.10;;;9.79;48.65;102179.31;12251225;19;19946;-87
2023/04/04 17:40:02;;;;;;;;;;;11.30;43.10;;;9.80;48.43;102186.22;12248035;19;19927;-88
2023/04/04 17:44:03;;;;;;;;;;;11.20;43.30;;;9.74;48.57;102174.22;12256184;19;19936;-87
2023/04/04 17:48:05;;;;;;;;;;;11.20;43.30;;;9.76;48.57;102182.84;12249587;19;19923;-87
2023/04/04 17:52:07;;;;;;;;;;;11.20;43.20;;;9.73;48.49;102183.78;12253511;19;19919;-87
2023/04/04 17:56:09;;;;;;;;;;;11.10;43.20;;;9.66;48.43;102173.56;12252256;19;19926;-87
2023/04/04 18:00:12;;;;;;;;;;;11.10;43.20;;;9.32;48.54;102124.97;12251497;19;19914;-87
2023/04/04 18:04:13;;;;;;;;;;;11.10;43.40;;;9.61;48.36;102175.44;12250252;19;19918;-87
2023/04/04 18:08:15;;;;;;;;;;;11.10;43.60;;;9.63;48.31;102179.72;12248106;19;20319;-87
2023/04/04 18:12:17;;;;;;;;;;;11.10;43.50;;;9.62;48.54;102178.03;12252292;19;19942;-87
2023/04/04 18:16:18;;;;;;;;;;;11.10;43.50;;;9.50;48.50;102165.31;12251528;19;19937;-87
2023/04/04 18:20:20;;;;;;;;;;;11.00;43.60;;;9.44;48.30;102166.34;12250590;19;19918;-87
2023/04/04 18:24:24;;;;;;;;;;;11.00;43.60;;;9.56;48.30;102185.16;12252913;19;20258;-88
2023/04/04 18:28:27;;;;;;;;;;;10.90;43.70;;;9.37;48.41;102153.50;12246314;19;20295;-88
2023/04/04 18:32:29;;;;;;;;;;;10.90;43.70;;;9.53;48.38;102183.47;12244019;19;20369;-87